createdAt,value
2022-09-28T00:01:16.623Z,7.43
2022-09-28T00:03:43.782Z,7.39
2022-09-28T00:06:12.524Z,7.34
2022-09-28T00:08:39.173Z,7.32
2022-09-28T00:11:07.259Z,7.30
2022-09-28T00:13:34.177Z,7.26
2022-09-28T00:16:06.294Z,7.24
2022-09-28T00:18:33.751Z,7.23
2022-09-28T00:21:14.987Z,7.20
2022-09-28T00:24:02.828Z,7.20
2022-09-28T00:26:31.028Z,7.18
2022-09-28T00:28:59.822Z,7.18
2022-09-28T00:31:29.430Z,7.18
2022-09-28T00:34:00.225Z,7.19
2022-09-28T00:36:28.209Z,7.19
2022-09-28T00:38:58.184Z,7.17
2022-09-28T00:41:27.308Z,7.16
2022-09-28T00:44:15.191Z,7.13
2022-09-28T00:46:41.877Z,7.08
2022-09-28T00:49:15.850Z,7.08
2022-09-28T00:51:44.131Z,7.00
2022-09-28T00:54:12.660Z,6.97
2022-09-28T00:56:42.028Z,6.94
2022-09-28T00:59:09.218Z,6.93
2022-09-28T01:01:39.309Z,6.89
2022-09-28T01:04:06.768Z,6.88
2022-09-28T01:06:35.903Z,6.88
2022-09-28T01:09:05.953Z,6.88
2022-09-28T01:11:33.733Z,6.83
2022-09-28T01:14:01.071Z,6.78
2022-09-28T01:16:45.908Z,6.77
2022-09-28T01:19:27.547Z,6.78
2022-09-28T01:22:26.159Z,6.81
2022-09-28T01:25:22.483Z,6.85
2022-09-28T01:27:59.699Z,6.88
2022-09-28T01:30:26.187Z,6.88
2022-09-28T01:33:04.874Z,6.89
2022-09-28T01:35:47.588Z,6.86
2022-09-28T01:38:33.770Z,6.86
2022-09-28T01:41:00.644Z,6.91
2022-09-28T01:43:28.915Z,6.92
2022-09-28T01:46:17.468Z,6.94
2022-09-28T01:48:50.645Z,6.90
2022-09-28T01:51:24.702Z,6.83
2022-09-28T01:53:55.489Z,6.75
2022-09-28T01:56:28.464Z,6.73
2022-09-28T01:59:02.885Z,6.73
2022-09-28T02:01:40.310Z,6.71
2022-09-28T02:04:14.758Z,6.68
2022-09-28T02:06:58.910Z,6.66
2022-09-28T02:09:44.925Z,6.62
2022-09-28T02:12:29.871Z,6.57
2022-09-28T02:15:06.654Z,6.58
2022-09-28T02:17:33.147Z,6.59
2022-09-28T02:19:59.918Z,6.59
2022-09-28T02:22:37.279Z,6.63
2022-09-28T02:25:10.319Z,6.64
2022-09-28T02:27:42.595Z,6.66
2022-09-28T02:30:10.288Z,6.66
2022-09-28T02:32:41.285Z,6.66
2022-09-28T02:35:10.736Z,6.65
2022-09-28T02:37:37.425Z,6.65
2022-09-28T02:40:13.534Z,6.64
2022-09-28T02:42:55.652Z,6.62
2022-09-28T02:45:35.712Z,6.59
2022-09-28T02:48:43.085Z,6.58
2022-09-28T02:51:13.488Z,6.59
2022-09-28T02:53:57.180Z,6.59
2022-09-28T02:56:48.037Z,6.61
2022-09-28T02:59:28.016Z,6.63
2022-09-28T03:02:15.008Z,6.64
2022-09-28T03:05:05.737Z,6.63
2022-09-28T03:07:41.576Z,6.63
2022-09-28T03:10:13.799Z,6.63
2022-09-28T03:12:43.449Z,6.63
2022-09-28T03:15:19.337Z,6.62
2022-09-28T03:17:45.891Z,6.62
2022-09-28T03:20:12.907Z,6.62
2022-09-28T03:22:39.701Z,6.63
2022-09-28T03:25:07.548Z,6.62
2022-09-28T03:27:34.040Z,6.60
2022-09-28T03:30:00.742Z,6.59
2022-09-28T03:32:27.267Z,6.57
2022-09-28T03:34:53.788Z,6.57
2022-09-28T03:37:20.380Z,6.55
2022-09-28T03:39:46.879Z,6.53
2022-09-28T03:42:13.386Z,6.52
2022-09-28T03:44:39.838Z,6.51
2022-09-28T03:47:09.437Z,6.51
2022-09-28T03:49:35.871Z,6.48
2022-09-28T03:52:03.277Z,6.45
2022-09-28T03:54:29.855Z,6.45
2022-09-28T03:56:56.361Z,6.44
2022-09-28T03:59:22.751Z,6.37
2022-09-28T04:01:50.517Z,6.39
2022-09-28T04:04:17.680Z,6.41
2022-09-28T04:06:44.185Z,6.42
2022-09-28T04:09:12.230Z,6.39
2022-09-28T04:11:59.504Z,6.36
2022-09-28T04:14:24.897Z,6.35
2022-09-28T04:16:55.030Z,6.33
2022-09-28T04:19:25.432Z,6.32
2022-09-28T04:21:52.071Z,6.27
2022-09-28T04:24:20.194Z,6.24
2022-09-28T04:26:46.717Z,6.18
2022-09-28T04:29:19.707Z,6.13
2022-09-28T04:31:51.791Z,6.09
2022-09-28T04:34:20.809Z,6.07
2022-09-28T04:36:48.036Z,6.05
2022-09-28T04:39:16.237Z,6.03
2022-09-28T04:41:42.880Z,6.01
2022-09-28T04:44:09.784Z,6.00
2022-09-28T04:46:36.497Z,5.98
2022-09-28T04:49:03.204Z,5.97
2022-09-28T04:51:35.685Z,5.95
2022-09-28T04:54:02.281Z,5.93
2022-09-28T04:56:28.808Z,5.94
2022-09-28T04:58:55.378Z,5.95
2022-09-28T05:01:24.264Z,5.96
2022-09-28T05:03:54.048Z,6.01
2022-09-28T05:06:21.006Z,6.02
2022-09-28T05:08:47.530Z,6.02
2022-09-28T05:11:14.997Z,6.02
2022-09-28T05:13:45.419Z,6.02
2022-09-28T05:16:14.184Z,5.99
2022-09-28T05:18:40.564Z,5.97
2022-09-28T05:21:14.814Z,5.97
2022-09-28T05:23:46.210Z,5.97
2022-09-28T05:26:12.805Z,5.98
2022-09-28T05:28:39.316Z,5.97
2022-09-28T05:31:05.874Z,5.96
2022-09-28T05:33:33.363Z,5.97
2022-09-28T05:36:01.538Z,5.96
2022-09-28T05:38:29.181Z,5.96
2022-09-28T05:40:55.981Z,5.97
2022-09-28T05:43:22.759Z,5.96
2022-09-28T05:45:54.321Z,5.96
2022-09-28T05:48:21.638Z,5.97
2022-09-28T05:50:52.374Z,5.99
2022-09-28T05:53:18.877Z,6.03
2022-09-28T05:55:48.375Z,6.07
2022-09-28T05:58:15.009Z,6.10
2022-09-28T06:00:41.549Z,6.16
2022-09-28T06:03:12.314Z,6.18
2022-09-28T06:05:39.787Z,6.22
2022-09-28T06:08:08.385Z,6.23
2022-09-28T06:10:35.486Z,6.26
2022-09-28T06:13:02.394Z,6.29
2022-09-28T06:15:31.435Z,6.31
2022-09-28T06:18:09.780Z,6.33
2022-09-28T06:20:41.430Z,6.38
2022-09-28T06:23:12.167Z,6.40
2022-09-28T06:25:39.288Z,6.45
2022-09-28T06:28:09.613Z,6.49
2022-09-28T06:30:38.933Z,6.51
2022-09-28T06:33:08.238Z,6.53
2022-09-28T06:35:35.240Z,6.55
2022-09-28T06:38:01.858Z,6.73
2022-09-28T06:40:28.933Z,6.90
2022-09-28T06:43:10.323Z,7.02
2022-09-28T06:45:38.588Z,7.11
2022-09-28T06:48:05.651Z,7.25
2022-09-28T06:50:36.078Z,7.85
2022-09-28T06:53:04.921Z,8.75
2022-09-28T06:55:31.566Z,9.02
2022-09-28T06:58:03.829Z,8.84
2022-09-28T07:00:34.012Z,8.69
2022-09-28T07:03:02.853Z,8.89
2022-09-28T07:05:29.879Z,9.30
2022-09-28T07:07:57.005Z,9.62
2022-09-28T07:10:27.858Z,10.26
2022-09-28T07:12:55.928Z,9.88
2022-09-28T07:15:23.190Z,9.91
2022-09-28T07:18:00.283Z,10.06
2022-09-28T07:20:28.428Z,11.72
2022-09-28T07:22:58.728Z,14.87
2022-09-28T07:25:30.289Z,15.09
2022-09-28T07:27:57.347Z,13.88
2022-09-28T07:30:26.713Z,16.61
2022-09-28T07:32:57.062Z,18.97
2022-09-28T07:35:23.578Z,20.73
2022-09-28T07:38:00.630Z,22.93
2022-09-28T07:40:49.294Z,21.12
2022-09-28T07:43:20.741Z,21.81
2022-09-28T07:45:49.197Z,24.44
2022-09-28T07:48:17.149Z,26.23
2022-09-28T07:50:48.198Z,27.18
2022-09-28T07:53:14.652Z,27.81
2022-09-28T07:55:41.012Z,28.19
2022-09-28T07:58:07.408Z,28.33
2022-09-28T08:00:34.350Z,28.55
2022-09-28T08:03:02.061Z,28.75
2022-09-28T08:05:31.990Z,28.73
2022-09-28T08:07:59.669Z,29.08
2022-09-28T08:10:26.628Z,28.88
2022-09-28T08:13:00.647Z,28.97
2022-09-28T08:15:36.821Z,28.83
2022-09-28T08:18:04.259Z,28.86
2022-09-28T08:20:51.856Z,28.94
2022-09-28T08:23:20.461Z,29.12
2022-09-28T08:25:52.493Z,28.99
2022-09-28T08:28:19.034Z,29.11
2022-09-28T08:30:47.129Z,29.11
2022-09-28T08:33:14.981Z,28.89
2022-09-28T08:35:42.175Z,29.05
2022-09-28T08:38:09.099Z,28.65
2022-09-28T08:40:48.198Z,28.53
2022-09-28T08:43:32.195Z,28.66
2022-09-28T08:46:00.123Z,28.43
2022-09-28T08:48:51.819Z,27.46
2022-09-28T08:51:30.951Z,27.68
2022-09-28T08:54:20.591Z,27.80
2022-09-28T08:56:47.080Z,27.93
2022-09-28T08:59:48.809Z,28.06
2022-09-28T09:02:20.859Z,27.98
2022-09-28T09:04:47.619Z,27.64
2022-09-28T09:07:38.143Z,27.69
2022-09-28T09:10:44.488Z,27.91
2022-09-28T09:13:48.641Z,28.02
2022-09-28T09:16:36.198Z,27.84
2022-09-28T09:19:16.706Z,26.87
2022-09-28T09:22:02.103Z,25.51
2022-09-28T09:25:08.027Z,23.86
2022-09-28T09:27:54.617Z,22.22
2022-09-28T09:30:29.891Z,22.80
2022-09-28T09:33:38.490Z,24.23
2022-09-28T09:36:34.367Z,25.23
2022-09-28T09:39:31.721Z,25.64
2022-09-28T09:42:08.160Z,23.95
2022-09-28T09:44:54.444Z,22.56
2022-09-28T09:47:41.052Z,21.89
2022-09-28T09:50:32.342Z,21.25
2022-09-28T09:53:24.912Z,20.50
2022-09-28T09:55:57.484Z,19.95
2022-09-28T09:58:31.701Z,19.33
2022-09-28T10:01:13.164Z,18.82
2022-09-28T10:03:47.103Z,18.61
2022-09-28T10:06:21.217Z,18.35
2022-09-28T10:09:02.213Z,18.17
2022-09-28T10:11:36.049Z,17.89
2022-09-28T10:14:04.331Z,17.59
2022-09-28T10:16:33.115Z,17.36
2022-09-28T10:19:00.652Z,17.10
2022-09-28T10:21:29.395Z,17.01
2022-09-28T10:23:58.221Z,16.88
2022-09-28T10:26:32.396Z,16.80
2022-09-28T10:29:14.807Z,16.66
2022-09-28T10:31:41.693Z,16.54
2022-09-28T10:34:14.158Z,16.41
2022-09-28T10:37:06.512Z,16.35
2022-09-28T10:39:39.244Z,16.29
2022-09-28T10:42:12.270Z,16.16
2022-09-28T10:44:48.661Z,15.83
2022-09-28T10:47:19.322Z,15.89
2022-09-28T10:49:49.249Z,16.00
2022-09-28T10:52:42.626Z,15.98
2022-09-28T10:55:21.264Z,15.88
2022-09-28T10:57:48.350Z,15.87
2022-09-28T11:00:35.013Z,15.86
2022-09-28T11:03:02.683Z,15.65
2022-09-28T11:05:29.968Z,15.54
2022-09-28T11:08:00.041Z,15.47
2022-09-28T11:10:29.868Z,16.08
2022-09-28T11:13:00.104Z,16.96
2022-09-28T11:15:31.651Z,18.06
2022-09-28T11:18:20.199Z,18.30
2022-09-28T11:20:46.781Z,17.57
2022-09-28T11:23:26.128Z,16.63
2022-09-28T11:26:07.323Z,16.17
2022-09-28T11:28:37.443Z,15.95
2022-09-28T11:31:07.276Z,15.79
2022-09-28T11:33:33.695Z,16.17
2022-09-28T11:36:18.515Z,16.34
2022-09-28T11:39:11.744Z,17.08
2022-09-28T11:42:04.936Z,18.30
2022-09-28T11:44:47.505Z,18.13
2022-09-28T11:47:36.925Z,17.18
2022-09-28T11:50:27.476Z,16.45
2022-09-28T11:53:25.748Z,16.15
2022-09-28T11:56:09.214Z,15.92
2022-09-28T11:58:42.117Z,15.74
2022-09-28T12:01:19.003Z,15.64
2022-09-28T12:03:52.381Z,15.55
2022-09-28T12:06:26.030Z,15.38
2022-09-28T12:09:06.653Z,15.27
2022-09-28T12:11:38.812Z,15.27
2022-09-28T12:14:11.231Z,15.24
2022-09-28T12:17:04.940Z,15.30
2022-09-28T12:19:41.388Z,15.82
2022-09-28T12:22:19.592Z,15.95
2022-09-28T12:24:49.116Z,15.90
2022-09-28T12:27:49.045Z,15.93
2022-09-28T12:30:21.332Z,15.94
2022-09-28T12:33:09.375Z,15.83
2022-09-28T12:35:52.549Z,15.45
2022-09-28T12:38:37.444Z,14.98
2022-09-28T12:41:22.642Z,14.58
2022-09-28T12:44:13.292Z,14.18
2022-09-28T12:46:58.220Z,13.90
2022-09-28T12:52:34.616Z,13.21
2022-09-28T12:55:19.828Z,13.04
2022-09-28T12:57:59.109Z,12.89
2022-09-28T13:00:54.957Z,12.75
2022-09-28T13:03:38.385Z,12.55
2022-09-28T13:06:29.568Z,12.38
2022-09-28T13:09:15.675Z,12.23
2022-09-28T13:12:00.572Z,12.16
2022-09-28T13:14:38.943Z,12.11
2022-09-28T13:17:29.235Z,12.13
2022-09-28T13:20:07.148Z,12.10
2022-09-28T13:22:46.212Z,11.98
2022-09-28T13:25:19.280Z,11.93
2022-09-28T13:27:53.357Z,11.90
2022-09-28T13:30:19.897Z,11.85
2022-09-28T13:32:48.456Z,11.83
2022-09-28T13:35:19.558Z,11.82
2022-09-28T13:38:08.831Z,11.95
2022-09-28T13:41:04.779Z,12.08
2022-09-28T13:43:49.755Z,12.22
2022-09-28T13:46:28.519Z,12.50
2022-09-28T13:49:23.390Z,12.88
2022-09-28T13:52:16.940Z,13.15
2022-09-28T13:55:00.597Z,13.24
2022-09-28T13:57:41.681Z,13.34
2022-09-28T14:00:10.820Z,13.48
2022-09-28T14:02:44.522Z,13.60
2022-09-28T14:05:51.952Z,13.69
2022-09-28T14:08:35.308Z,13.67
2022-09-28T14:11:26.764Z,13.59
2022-09-28T14:14:08.431Z,13.44
2022-09-28T14:16:36.910Z,13.23
2022-09-28T14:19:03.541Z,13.21
2022-09-28T14:21:49.218Z,13.21
2022-09-28T14:24:52.787Z,13.22
2022-09-28T14:27:41.845Z,13.15
2022-09-28T14:30:11.320Z,13.12
2022-09-28T14:32:39.983Z,13.09
2022-09-28T14:35:18.779Z,13.04
2022-09-28T14:38:07.180Z,12.99
2022-09-28T14:41:13.473Z,13.00
2022-09-28T14:43:45.749Z,12.94
2022-09-28T14:46:15.740Z,12.80
2022-09-28T14:48:53.419Z,12.76
2022-09-28T14:51:26.404Z,12.71
2022-09-28T14:53:54.897Z,12.73
2022-09-28T14:56:22.204Z,12.70
2022-09-28T14:58:57.190Z,12.56
2022-09-28T15:01:30.159Z,12.51
2022-09-28T15:04:01.929Z,12.41
2022-09-28T15:06:45.353Z,12.26
2022-09-28T15:09:35.217Z,12.20
2022-09-28T15:12:12.318Z,12.19
2022-09-28T15:14:46.600Z,12.19
2022-09-28T15:17:14.300Z,12.18
2022-09-28T15:20:05.840Z,12.17
2022-09-28T15:22:33.807Z,12.15
2022-09-28T15:25:03.270Z,12.14
2022-09-28T15:27:41.953Z,12.14
2022-09-28T15:30:20.308Z,12.18
2022-09-28T15:32:46.717Z,12.26
2022-09-28T15:35:20.448Z,12.25
2022-09-28T15:37:52.203Z,12.25
2022-09-28T15:40:25.555Z,12.26
2022-09-28T15:42:55.861Z,12.29
2022-09-28T15:45:39.890Z,12.23
2022-09-28T15:48:35.665Z,12.18
2022-09-28T15:51:11.700Z,12.07
2022-09-28T15:53:58.376Z,11.97
2022-09-28T15:56:26.563Z,11.90
2022-09-28T15:59:14.237Z,11.90
2022-09-28T16:01:45.529Z,11.88
2022-09-28T16:04:38.837Z,11.93
2022-09-28T16:07:23.520Z,11.99
2022-09-28T16:10:12.088Z,12.18
2022-09-28T16:12:41.220Z,12.30
2022-09-28T16:15:18.268Z,12.39
2022-09-28T16:17:51.339Z,12.34
2022-09-28T16:20:34.001Z,12.41
2022-09-28T16:23:08.749Z,12.51
2022-09-28T16:25:38.998Z,12.54
2022-09-28T16:28:06.275Z,12.49
2022-09-28T16:30:34.167Z,12.41
2022-09-28T16:33:05.091Z,12.28
2022-09-28T16:35:40.367Z,12.24
2022-09-28T16:38:14.822Z,12.16
2022-09-28T16:40:43.194Z,12.00
2022-09-28T16:43:19.274Z,11.93
2022-09-28T16:45:46.348Z,11.88
2022-09-28T16:48:20.345Z,11.79
2022-09-28T16:50:46.815Z,11.69
2022-09-28T16:53:35.380Z,11.56
2022-09-28T16:56:03.582Z,11.53
2022-09-28T16:58:31.649Z,11.46
2022-09-28T17:00:59.080Z,11.39
2022-09-28T17:03:26.417Z,11.30
2022-09-28T17:05:55.152Z,11.26
2022-09-28T17:08:24.151Z,11.22
2022-09-28T17:13:40.893Z,11.14
2022-09-28T17:16:13.279Z,11.04
2022-09-28T17:18:40.174Z,11.00
2022-09-28T17:21:11.359Z,10.95
2022-09-28T17:23:37.976Z,10.90
2022-09-28T17:26:05.416Z,10.87
2022-09-28T17:28:34.049Z,10.81
2022-09-28T17:31:00.500Z,10.73
2022-09-28T17:33:27.318Z,10.66
2022-09-28T17:35:59.634Z,10.60
2022-09-28T17:38:26.309Z,10.55
2022-09-28T17:40:52.943Z,10.49
2022-09-28T17:43:21.041Z,10.42
2022-09-28T17:45:48.963Z,10.30
2022-09-28T17:48:19.214Z,10.24
2022-09-28T17:50:47.390Z,10.17
2022-09-28T17:53:14.395Z,10.13
2022-09-28T17:55:43.105Z,10.10
2022-09-28T17:58:21.230Z,10.06
2022-09-28T18:00:50.071Z,10.02
2022-09-28T18:03:21.375Z,9.99
2022-09-28T18:06:00.921Z,10.00
2022-09-28T18:08:27.433Z,9.96
2022-09-28T18:10:54.565Z,9.86
2022-09-28T18:13:20.892Z,9.76
2022-09-28T18:15:51.192Z,9.76
2022-09-28T18:18:17.826Z,9.74
2022-09-28T18:20:44.203Z,9.71
2022-09-28T18:23:10.612Z,9.67
2022-09-28T18:25:45.104Z,9.56
2022-09-28T18:28:12.545Z,9.47
2022-09-28T18:30:40.838Z,9.39
2022-09-28T18:33:10.021Z,9.30
2022-09-28T18:35:36.505Z,9.26
2022-09-28T18:38:05.302Z,9.28
2022-09-28T18:40:35.717Z,9.30
2022-09-28T18:43:03.097Z,9.32
2022-09-28T18:45:29.988Z,9.28
2022-09-28T18:47:57.749Z,9.27
2022-09-28T18:50:24.288Z,9.15
2022-09-28T18:52:50.739Z,9.16
2022-09-28T18:55:17.777Z,9.22
2022-09-28T18:57:44.679Z,9.23
2022-09-28T19:00:11.949Z,9.20
2022-09-28T19:02:38.625Z,9.18
2022-09-28T19:05:06.055Z,9.20
2022-09-28T19:07:33.828Z,9.21
2022-09-28T19:10:00.244Z,9.19
2022-09-28T19:12:27.000Z,9.17
2022-09-28T19:14:53.448Z,9.16
2022-09-28T19:17:19.887Z,9.15
2022-09-28T19:19:46.248Z,9.11
2022-09-28T19:22:12.831Z,9.07
2022-09-28T19:24:39.200Z,9.04
2022-09-28T19:27:05.660Z,8.99
2022-09-28T19:29:32.229Z,8.98
2022-09-28T19:31:58.725Z,8.99
2022-09-28T19:34:26.993Z,8.97
2022-09-28T19:36:53.577Z,8.95
2022-09-28T19:39:20.131Z,8.94
2022-09-28T19:41:46.565Z,8.90
2022-09-28T19:44:27.898Z,8.88
2022-09-28T19:46:59.112Z,8.88
2022-09-28T19:49:27.281Z,8.84
2022-09-28T19:52:12.765Z,8.83
2022-09-28T19:54:45.000Z,8.82
2022-09-28T19:57:15.634Z,8.80
2022-09-28T19:59:42.197Z,8.78
2022-09-28T20:02:10.946Z,8.76
2022-09-28T20:04:37.535Z,8.72
2022-09-28T20:07:05.197Z,8.62
2022-09-28T20:09:32.621Z,8.60
2022-09-28T20:11:58.987Z,8.59
2022-09-28T20:14:26.446Z,8.57
2022-09-28T20:16:54.772Z,8.57
2022-09-28T20:19:22.971Z,8.58
2022-09-28T20:21:50.238Z,8.55
2022-09-28T20:24:17.375Z,8.55
2022-09-28T20:26:45.803Z,8.54
2022-09-28T20:29:12.692Z,8.54
2022-09-28T20:31:39.575Z,8.52
2022-09-28T20:34:07.081Z,8.51
2022-09-28T20:36:33.674Z,8.47
2022-09-28T20:39:03.877Z,8.45
2022-09-28T20:41:35.725Z,8.41
2022-09-28T20:44:05.758Z,8.33
2022-09-28T20:46:33.975Z,8.26
2022-09-28T20:49:00.686Z,8.23
2022-09-28T20:51:27.370Z,8.19
2022-09-28T20:53:55.846Z,8.16
2022-09-28T20:56:25.332Z,8.12
2022-09-28T20:58:52.196Z,8.09
2022-09-28T21:01:21.334Z,8.06
2022-09-28T21:04:05.389Z,8.05
2022-09-28T21:06:34.913Z,8.05
2022-09-28T21:09:02.058Z,8.03
2022-09-28T21:11:29.811Z,8.02
2022-09-28T21:13:58.914Z,8.01
2022-09-28T21:16:27.040Z,7.99
2022-09-28T21:18:53.657Z,7.97
2022-09-28T21:21:22.306Z,7.91
2022-09-28T21:23:53.427Z,7.86
2022-09-28T21:26:25.261Z,7.80
2022-09-28T21:28:57.827Z,7.72
2022-09-28T21:31:29.097Z,7.63
2022-09-28T21:33:56.919Z,7.61
2022-09-28T21:36:23.361Z,7.63
2022-09-28T21:38:50.286Z,7.62
2022-09-28T21:41:17.174Z,7.58
2022-09-28T21:43:43.701Z,7.54
2022-09-28T21:46:10.449Z,7.53
2022-09-28T21:48:37.215Z,7.55
2022-09-28T21:51:06.536Z,7.55
2022-09-28T21:53:35.270Z,7.55
2022-09-28T21:56:03.666Z,7.50
2022-09-28T21:58:32.014Z,7.44
2022-09-28T22:01:07.612Z,7.48
2022-09-28T22:03:35.575Z,7.48
2022-09-28T22:06:03.820Z,7.43
2022-09-28T22:08:30.558Z,7.42
2022-09-28T22:11:01.710Z,7.43
2022-09-28T22:13:29.525Z,7.41
2022-09-28T22:15:58.662Z,7.34
2022-09-28T22:18:26.933Z,7.30
2022-09-28T22:21:04.003Z,7.27
2022-09-28T22:23:30.427Z,7.24
2022-09-28T22:26:01.995Z,7.14
2022-09-28T22:28:29.048Z,7.08
2022-09-28T22:30:56.208Z,7.07
2022-09-28T22:33:22.989Z,6.97
2022-09-28T22:35:51.321Z,6.89
2022-09-28T22:38:22.304Z,6.87
2022-09-28T22:40:54.619Z,6.92
2022-09-28T22:43:23.520Z,6.97
2022-09-28T22:45:50.569Z,7.00
2022-09-28T22:48:17.172Z,6.95
2022-09-28T22:50:51.109Z,6.91
2022-09-28T22:53:19.005Z,6.91
2022-09-28T22:55:45.562Z,6.89
2022-09-28T22:58:11.951Z,6.87
2022-09-28T23:00:38.408Z,6.88
2022-09-28T23:03:05.168Z,6.86
2022-09-28T23:05:31.960Z,6.85
2022-09-28T23:07:59.778Z,6.75
2022-09-28T23:10:26.535Z,6.69
2022-09-28T23:12:54.136Z,6.68
2022-09-28T23:15:21.580Z,6.67
2022-09-28T23:17:54.621Z,6.63
2022-09-28T23:20:21.939Z,6.63
2022-09-28T23:22:49.157Z,6.57
2022-09-28T23:25:17.362Z,6.49
2022-09-28T23:27:48.437Z,6.42
2022-09-28T23:30:17.072Z,6.31
2022-09-28T23:32:43.805Z,6.34
2022-09-28T23:35:10.901Z,6.31
2022-09-28T23:37:37.914Z,6.30
2022-09-28T23:40:06.079Z,6.34
2022-09-28T23:42:34.794Z,6.40
2022-09-28T23:45:01.148Z,6.43
2022-09-28T23:47:27.509Z,6.36
2022-09-28T23:49:54.031Z,6.32
2022-09-28T23:52:20.563Z,6.24
2022-09-28T23:54:46.989Z,6.18
2022-09-28T23:57:13.560Z,6.14
2022-09-28T23:59:42.834Z,6.14
